Time;durP1;ratioP1;P1;durP2;ratioP2;P2;SDS_P1;SDS_P2;PMS_P1;PMS_P2;Temp;Humidity;BMP_temperature;BMP_pressure;BME280_temperature;BME280_humidity;BME280_pressure;Samples;Min_cycle;Max_cycle;Signal;HPM_P1;HPM_P2
2023/03/10 00:02:08;;;;;;;10.25;2.22;;;;;;;;;;4888818;29;20025;-75
2023/03/10 00:04:34;;;;;;;6.03;1.83;;;;;;;;;;4898993;29;20482;-75
2023/03/10 00:07:00;;;;;;;3.85;2.00;;;;;;;;;;4895276;29;20032;-76
2023/03/10 00:09:26;;;;;;;3.75;1.95;;;;;;;;;;4894860;29;20028;-75
2023/03/10 00:11:52;;;;;;;1.85;1.52;;;;;;;;;;4896462;29;20044;-75
2023/03/10 00:14:18;;;;;;;4.50;1.88;;;;;;;;;;4897825;29;20043;-75
2023/03/10 00:16:44;;;;;;;7.13;2.13;;;;;;;;;;4897062;29;20498;-74
2023/03/10 00:19:10;;;;;;;4.07;2.53;;;;;;;;;;4897175;29;20064;-75
2023/03/10 00:21:36;;;;;;;4.18;1.95;;;;;;;;;;4895144;29;20032;-76
2023/03/10 00:24:02;;;;;;;2.67;1.90;;;;;;;;;;4888514;29;20107;-75
2023/03/10 00:26:29;;;;;;;3.30;1.95;;;;;;;;;;4894921;29;20032;-76
2023/03/10 00:28:55;;;;;;;3.45;1.90;;;;;;;;;;4899455;29;20027;-75
2023/03/10 00:31:23;;;;;;;2.15;1.70;;;;;;;;;;4897076;29;20878;-75
2023/03/10 00:33:50;;;;;;;4.20;1.75;;;;;;;;;;4893886;29;20040;-75
2023/03/10 00:36:18;;;;;;;2.58;2.15;;;;;;;;;;4902344;29;20028;-75
2023/03/10 00:38:45;;;;;;;4.00;2.60;;;;;;;;;;4900334;29;20506;-75
2023/03/10 00:41:12;;;;;;;2.80;2.40;;;;;;;;;;4905730;29;20045;-75
2023/03/10 00:43:38;;;;;;;3.92;2.63;;;;;;;;;;4894637;29;20036;-76
2023/03/10 00:46:07;;;;;;;5.72;2.67;;;;;;;;;;4889593;29;20029;-74
2023/03/10 00:48:33;;;;;;;4.38;2.70;;;;;;;;;;4902902;29;20515;-75
2023/03/10 00:50:59;;;;;;;4.55;2.85;;;;;;;;;;4902081;29;20033;-74
2023/03/10 00:53:26;;;;;;;4.18;2.58;;;;;;;;;;4893793;29;20387;-75
2023/03/10 00:55:58;;;;;;;2.35;1.88;;;;;;;;;;4900452;29;20043;-75
2023/03/10 00:58:24;;;;;;;3.22;2.25;;;;;;;;;;4894198;29;20081;-75
2023/03/10 01:00:51;;;;;;;2.35;1.85;;;;;;;;;;4893859;29;20443;-75
2023/03/10 01:03:17;;;;;;;4.80;2.30;;;;;;;;;;4898454;29;20149;-75
2023/03/10 01:05:44;;;;;;;3.17;1.98;;;;;;;;;;4883787;29;20131;-74
2023/03/10 01:08:10;;;;;;;4.25;2.25;;;;;;;;;;4899317;29;20039;-75
2023/03/10 01:10:36;;;;;;;2.95;2.53;;;;;;;;;;4883715;29;20070;-75
2023/03/10 01:13:02;;;;;;;2.50;2.03;;;;;;;;;;4896864;29;20190;-73
2023/03/10 01:15:28;;;;;;;1.92;1.70;;;;;;;;;;4896540;29;20041;-74
2023/03/10 01:17:54;;;;;;;1.73;1.60;;;;;;;;;;4878597;29;20126;-74
2023/03/10 01:20:21;;;;;;;2.40;2.00;;;;;;;;;;4904019;29;20608;-74
2023/03/10 01:22:47;;;;;;;2.75;2.45;;;;;;;;;;4895561;29;20535;-74
2023/03/10 01:25:14;;;;;;;3.97;2.78;;;;;;;;;;4884052;29;20033;-74
2023/03/10 01:27:41;;;;;;;3.10;2.67;;;;;;;;;;4902753;29;20051;-75
2023/03/10 01:30:08;;;;;;;3.65;2.50;;;;;;;;;;4904054;29;20056;-74
2023/03/10 01:32:34;;;;;;;3.58;2.40;;;;;;;;;;4901993;29;20033;-74
2023/03/10 01:35:00;;;;;;;2.22;1.90;;;;;;;;;;4892811;29;20093;-75
2023/03/10 01:37:26;;;;;;;2.80;2.08;;;;;;;;;;4887448;29;20036;-73
2023/03/10 01:39:52;;;;;;;3.78;2.10;;;;;;;;;;4899466;29;20025;-74
2023/03/10 01:42:19;;;;;;;2.10;1.88;;;;;;;;;;4896261;29;20047;-75
2023/03/10 01:45:03;;;;;;;3.33;2.00;;;;;;;;;;4897851;29;20032;-74
2023/03/10 01:47:29;;;;;;;2.60;2.38;;;;;;;;;;4901392;29;20057;-74
2023/03/10 01:49:56;;;;;;;3.22;2.13;;;;;;;;;;4890668;29;20028;-74
2023/03/10 01:52:24;;;;;;;2.20;2.00;;;;;;;;;;4894754;29;20071;-74
2023/03/10 01:54:56;;;;;;;2.47;2.08;;;;;;;;;;4878603;29;20039;-74
2023/03/10 01:57:24;;;;;;;2.35;2.15;;;;;;;;;;4870684;29;20029;-74
2023/03/10 01:59:51;;;;;;;2.40;2.00;;;;;;;;;;4888388;29;20033;-75
2023/03/10 02:02:18;;;;;;;2.10;1.90;;;;;;;;;;4899756;29;20274;-75
2023/03/10 02:04:47;;;;;;;2.33;2.13;;;;;;;;;;4889767;29;20502;-75
2023/03/10 02:07:14;;;;;;;2.17;1.98;;;;;;;;;;4898898;29;20597;-74
2023/03/10 02:09:42;;;;;;;2.83;2.17;;;;;;;;;;4898322;29;20107;-76
2023/03/10 02:12:09;;;;;;;2.50;2.20;;;;;;;;;;4901181;29;20031;-74
2023/03/10 02:14:36;;;;;;;2.35;2.15;;;;;;;;;;4894953;29;20140;-75
2023/03/10 02:17:04;;;;;;;2.70;2.15;;;;;;;;;;4903287;29;20021;-76
2023/03/10 02:19:48;;;;;;;1.83;1.73;;;;;;;;;;4890990;29;20028;-76
2023/03/10 02:22:16;;;;;;;2.72;2.53;;;;;;;;;;4889954;29;20365;-76
2023/03/10 02:25:01;;;;;;;3.00;2.10;;;;;;;;;;4891959;29;20042;-76
2023/03/10 02:27:29;;;;;;;2.78;1.80;;;;;;;;;;4890610;29;20399;-74
2023/03/10 02:30:00;;;;;;;2.50;2.10;;;;;;;;;;4874908;29;20051;-75
2023/03/10 02:32:28;;;;;;;2.45;2.17;;;;;;;;;;4892689;29;20032;-74
2023/03/10 02:34:55;;;;;;;3.20;2.40;;;;;;;;;;4893251;29;20047;-74
2023/03/10 02:37:25;;;;;;;4.72;2.70;;;;;;;;;;4891061;29;20394;-74
2023/03/10 02:39:51;;;;;;;3.90;2.47;;;;;;;;;;4891510;29;20091;-73
2023/03/10 02:42:18;;;;;;;2.78;2.17;;;;;;;;;;4893049;29;20072;-74
2023/03/10 02:44:45;;;;;;;4.35;2.92;;;;;;;;;;4890946;29;20040;-74
2023/03/10 02:47:15;;;;;;;3.33;2.60;;;;;;;;;;4897003;29;20028;-75
2023/03/10 02:49:41;;;;;;;2.85;2.40;;;;;;;;;;4896744;29;20522;-73
2023/03/10 02:52:11;;;;;;;3.67;2.65;;;;;;;;;;4897909;29;20104;-74
2023/03/10 02:54:38;;;;;;;3.13;2.40;;;;;;;;;;4895381;29;20027;-74
2023/03/10 02:57:07;;;;;;;3.38;2.90;;;;;;;;;;4901533;29;20056;-75
2023/03/10 02:59:33;;;;;;;3.53;2.72;;;;;;;;;;4892813;29;20028;-75
2023/03/10 03:01:59;;;;;;;2.97;2.38;;;;;;;;;;4893944;29;20040;-75
2023/03/10 03:04:25;;;;;;;3.88;2.63;;;;;;;;;;4893241;29;20452;-75
2023/03/10 03:06:51;;;;;;;3.05;2.40;;;;;;;;;;4893656;29;20021;-74
2023/03/10 03:09:17;;;;;;;2.90;2.25;;;;;;;;;;4895229;29;20041;-76
2023/03/10 03:11:44;;;;;;;2.38;2.17;;;;;;;;;;4894254;29;20032;-75
2023/03/10 03:14:10;;;;;;;2.63;2.28;;;;;;;;;;4905105;29;20066;-75
2023/03/10 03:16:37;;;;;;;2.90;2.30;;;;;;;;;;4898226;29;20575;-74
2023/03/10 03:19:03;;;;;;;2.35;2.08;;;;;;;;;;4900993;29;20388;-75
2023/03/10 03:21:30;;;;;;;2.38;2.17;;;;;;;;;;4906833;29;20545;-74
2023/03/10 03:23:56;;;;;;;3.63;2.65;;;;;;;;;;4896667;29;20077;-76
2023/03/10 03:26:25;;;;;;;3.92;2.50;;;;;;;;;;4906734;29;20028;-75
2023/03/10 03:28:52;;;;;;;3.25;2.65;;;;;;;;;;4899064;29;20017;-75
2023/03/10 03:31:19;;;;;;;3.30;2.65;;;;;;;;;;4901167;29;20063;-75
2023/03/10 03:33:45;;;;;;;2.90;2.60;;;;;;;;;;4895146;29;20040;-76
2023/03/10 03:36:12;;;;;;;2.95;2.20;;;;;;;;;;4902234;29;20355;-75
2023/03/10 03:38:41;;;;;;;4.20;2.80;;;;;;;;;;4898691;29;20387;-75
2023/03/10 03:41:07;;;;;;;4.35;2.97;;;;;;;;;;4899404;29;20530;-76
2023/03/10 03:43:33;;;;;;;3.25;2.25;;;;;;;;;;4889390;29;20035;-76
2023/03/10 03:46:00;;;;;;;2.53;2.10;;;;;;;;;;4901491;29;20039;-76
2023/03/10 03:48:26;;;;;;;2.92;2.30;;;;;;;;;;4894550;29;20027;-75
2023/03/10 03:50:53;;;;;;;3.03;2.53;;;;;;;;;;4900783;29;20028;-75
2023/03/10 03:53:19;;;;;;;4.97;2.88;;;;;;;;;;4893304;29;20341;-75
2023/03/10 03:55:45;;;;;;;2.83;2.50;;;;;;;;;;4900156;29;20052;-75
2023/03/10 03:58:11;;;;;;;2.45;1.92;;;;;;;;;;4886207;29;20033;-76
2023/03/10 04:00:39;;;;;;;2.95;2.20;;;;;;;;;;4897214;29;20039;-75
2023/03/10 04:03:05;;;;;;;2.88;2.10;;;;;;;;;;4896706;29;20446;-74
2023/03/10 04:05:31;;;;;;;1.85;1.73;;;;;;;;;;4882246;29;20056;-75
2023/03/10 04:07:57;;;;;;;2.33;1.85;;;;;;;;;;4899274;29;20052;-75
2023/03/10 04:10:25;;;;;;;2.53;1.92;;;;;;;;;;4898886;29;20029;-75
2023/03/10 04:12:51;;;;;;;2.33;2.05;;;;;;;;;;4891285;29;20031;-75
2023/03/10 04:15:18;;;;;;;2.30;1.92;;;;;;;;;;4901962;29;20029;-75
2023/03/10 04:17:44;;;;;;;2.40;2.20;;;;;;;;;;4891708;29;20442;-75
2023/03/10 04:20:13;;;;;;;3.38;2.17;;;;;;;;;;4885688;29;20043;-75
2023/03/10 04:22:39;;;;;;;3.40;1.80;;;;;;;;;;4898951;29;20450;-75
2023/03/10 04:25:06;;;;;;;2.45;1.92;;;;;;;;;;4898614;29;20043;-75
2023/03/10 04:27:32;;;;;;;2.40;2.13;;;;;;;;;;4895764;29;20083;-75
2023/03/10 04:29:58;;;;;;;1.90;1.70;;;;;;;;;;4892651;29;20040;-75
2023/03/10 04:32:25;;;;;;;1.92;1.80;;;;;;;;;;4875023;29;20537;-76
2023/03/10 04:34:52;;;;;;;2.10;1.90;;;;;;;;;;4895376;29;20029;-74
2023/03/10 04:37:20;;;;;;;3.08;2.20;;;;;;;;;;4898259;29;20017;-75
2023/03/10 04:39:47;;;;;;;2.53;1.90;;;;;;;;;;4878294;29;20036;-75
2023/03/10 04:42:13;;;;;;;2.15;1.95;;;;;;;;;;4893810;29;20511;-75
2023/03/10 04:44:39;;;;;;;1.73;1.63;;;;;;;;;;4900168;29;20478;-75
2023/03/10 04:47:05;;;;;;;2.15;1.80;;;;;;;;;;4901894;29;20055;-75
2023/03/10 04:49:34;;;;;;;2.38;1.90;;;;;;;;;;4901294;29;20020;-76
2023/03/10 04:52:00;;;;;;;1.92;1.80;;;;;;;;;;4876466;29;20028;-75
2023/03/10 04:54:27;;;;;;;2.13;1.80;;;;;;;;;;4881198;29;20063;-75
2023/03/10 04:56:53;;;;;;;2.15;1.90;;;;;;;;;;4906108;29;20029;-75
2023/03/10 04:59:20;;;;;;;2.47;1.90;;;;;;;;;;4898436;29;20041;-75
2023/03/10 05:01:46;;;;;;;2.28;2.00;;;;;;;;;;4895311;29;20043;-75
2023/03/10 05:04:13;;;;;;;2.60;1.80;;;;;;;;;;4903625;29;20024;-74
2023/03/10 05:06:39;;;;;;;2.53;2.33;;;;;;;;;;4899119;29;20337;-75
2023/03/10 05:09:05;;;;;;;2.95;1.88;;;;;;;;;;4885387;29;20486;-74
2023/03/10 05:11:32;;;;;;;3.47;1.98;;;;;;;;;;4899894;29;20334;-75
2023/03/10 05:13:58;;;;;;;2.05;1.85;;;;;;;;;;4907182;29;20394;-75
2023/03/10 05:16:24;;;;;;;3.70;2.17;;;;;;;;;;4904262;29;20432;-75
2023/03/10 05:18:50;;;;;;;2.80;2.00;;;;;;;;;;4891237;29;20028;-75
2023/03/10 05:21:16;;;;;;;2.90;2.53;;;;;;;;;;4880086;29;20029;-75
2023/03/10 05:23:42;;;;;;;2.45;2.13;;;;;;;;;;4880160;29;20100;-76
2023/03/10 05:26:09;;;;;;;2.80;2.50;;;;;;;;;;4896795;29;20032;-76
2023/03/10 05:28:35;;;;;;;2.80;2.50;;;;;;;;;;4904604;29;20025;-76
2023/03/10 05:31:07;;;;;;;3.20;2.30;;;;;;;;;;4903846;29;20040;-76
2023/03/10 05:33:33;;;;;;;3.13;2.58;;;;;;;;;;4906419;29;20389;-74
2023/03/10 05:35:59;;;;;;;3.92;2.63;;;;;;;;;;4898334;29;20441;-75
2023/03/10 05:38:25;;;;;;;2.92;2.30;;;;;;;;;;4893974;29;20037;-75
2023/03/10 05:40:51;;;;;;;2.38;2.17;;;;;;;;;;4891372;29;20028;-75
2023/03/10 05:43:17;;;;;;;3.08;2.40;;;;;;;;;;4901343;29;20021;-76
2023/03/10 05:45:43;;;;;;;3.88;2.50;;;;;;;;;;4905383;29;20048;-75
2023/03/10 05:48:09;;;;;;;3.03;2.42;;;;;;;;;;4899920;29;20032;-75
2023/03/10 05:50:36;;;;;;;3.20;2.45;;;;;;;;;;4903852;29;20044;-76
2023/03/10 05:53:02;;;;;;;3.05;2.65;;;;;;;;;;4896436;29;20055;-75
2023/03/10 05:55:28;;;;;;;2.10;1.90;;;;;;;;;;4897244;29;20106;-75
2023/03/10 05:57:54;;;;;;;3.60;2.53;;;;;;;;;;4876677;29;20033;-75
2023/03/10 06:00:20;;;;;;;2.45;2.25;;;;;;;;;;4890446;29;20494;-76
2023/03/10 06:02:47;;;;;;;2.65;2.10;;;;;;;;;;4896598;29;20361;-75
2023/03/10 06:05:13;;;;;;;2.88;2.42;;;;;;;;;;4887230;29;20039;-75
2023/03/10 06:07:39;;;;;;;3.85;2.80;;;;;;;;;;4910471;29;20024;-75
2023/03/10 06:10:05;;;;;;;3.80;2.55;;;;;;;;;;4907233;29;20040;-75
2023/03/10 06:12:32;;;;;;;2.45;2.05;;;;;;;;;;4895930;29;20056;-75
2023/03/10 06:14:58;;;;;;;3.38;2.17;;;;;;;;;;4898098;29;20015;-75
2023/03/10 06:17:25;;;;;;;3.50;2.28;;;;;;;;;;4896758;29;20061;-75
2023/03/10 06:19:51;;;;;;;4.82;2.08;;;;;;;;;;4897443;29;20024;-76
2023/03/10 06:22:17;;;;;;;2.60;1.92;;;;;;;;;;4893492;29;20665;-75
2023/03/10 06:24:44;;;;;;;3.63;2.33;;;;;;;;;;4881400;29;20029;-76
2023/03/10 06:27:10;;;;;;;2.35;2.10;;;;;;;;;;4901620;29;20033;-75
2023/03/10 06:29:36;;;;;;;2.42;1.92;;;;;;;;;;4902852;29;20550;-76
2023/03/10 06:32:02;;;;;;;2.63;2.22;;;;;;;;;;4876802;29;20879;-77
2023/03/10 06:34:29;;;;;;;3.67;2.20;;;;;;;;;;4894751;29;20087;-76
2023/03/10 06:36:55;;;;;;;5.70;2.15;;;;;;;;;;4897268;29;20495;-78
2023/03/10 06:39:22;;;;;;;3.67;1.90;;;;;;;;;;4896939;29;20067;-77
2023/03/10 06:41:48;;;;;;;2.00;1.80;;;;;;;;;;4903671;29;20043;-75
2023/03/10 06:44:17;;;;;;;2.90;2.60;;;;;;;;;;4896703;29;20116;-76
2023/03/10 06:46:44;;;;;;;4.28;2.00;;;;;;;;;;4901927;29;20017;-75
2023/03/10 06:49:10;;;;;;;2.78;2.30;;;;;;;;;;4904454;29;20024;-74
2023/03/10 06:51:36;;;;;;;2.00;1.80;;;;;;;;;;4898446;29;20041;-75
2023/03/10 06:54:03;;;;;;;2.28;2.08;;;;;;;;;;4902934;29;20035;-75
2023/03/10 06:56:30;;;;;;;2.70;2.00;;;;;;;;;;4902220;29;20024;-75
2023/03/10 06:58:56;;;;;;;3.45;2.28;;;;;;;;;;4905786;29;20029;-75
2023/03/10 07:01:30;;;;;;;2.50;1.83;;;;;;;;;;4899132;29;20168;-75
2023/03/10 07:03:57;;;;;;;3.88;2.30;;;;;;;;;;4892492;29;20104;-75
2023/03/10 07:06:23;;;;;;;2.85;2.15;;;;;;;;;;4880967;29;20036;-75
2023/03/10 07:08:49;;;;;;;2.75;1.90;;;;;;;;;;4897602;29;20206;-76
2023/03/10 07:11:16;;;;;;;3.72;1.95;;;;;;;;;;4896107;29;20232;-75
2023/03/10 07:13:42;;;;;;;4.10;2.00;;;;;;;;;;4895382;29;20029;-76
2023/03/10 07:16:08;;;;;;;4.63;2.40;;;;;;;;;;4877502;29;20044;-75
2023/03/10 07:18:34;;;;;;;3.92;2.08;;;;;;;;;;4896603;29;20037;-75
2023/03/10 07:21:06;;;;;;;3.42;1.95;;;;;;;;;;4897812;29;20052;-76
2023/03/10 07:23:32;;;;;;;3.33;2.40;;;;;;;;;;4894445;29;20080;-75
2023/03/10 07:25:59;;;;;;;7.88;2.85;;;;;;;;;;4897918;29;20092;-74
2023/03/10 07:28:26;;;;;;;4.72;2.53;;;;;;;;;;4892187;29;20455;-75
2023/03/10 07:30:55;;;;;;;4.93;2.88;;;;;;;;;;4897344;29;20491;-75
2023/03/10 07:33:21;;;;;;;2.88;2.50;;;;;;;;;;4895278;29;20025;-75
2023/03/10 07:35:47;;;;;;;3.67;2.47;;;;;;;;;;4895194;29;22364;-75
2023/03/10 07:38:14;;;;;;;4.93;2.95;;;;;;;;;;4894047;29;20356;-75
2023/03/10 07:40:40;;;;;;;5.68;3.28;;;;;;;;;;4894652;29;20546;-76
2023/03/10 07:43:06;;;;;;;7.55;3.90;;;;;;;;;;4898068;29;20029;-75
2023/03/10 07:45:34;;;;;;;5.35;2.70;;;;;;;;;;4902072;29;20052;-76
2023/03/10 07:48:00;;;;;;;6.63;3.10;;;;;;;;;;4898614;29;20023;-76
2023/03/10 07:50:26;;;;;;;2.95;2.40;;;;;;;;;;4897163;29;20508;-75
2023/03/10 07:52:54;;;;;;;3.35;2.55;;;;;;;;;;4893736;29;20028;-76
2023/03/10 07:55:20;;;;;;;2.90;2.42;;;;;;;;;;4893498;29;20035;-77
2023/03/10 07:57:47;;;;;;;2.42;1.98;;;;;;;;;;4895877;29;20056;-77
2023/03/10 08:00:14;;;;;;;3.53;2.30;;;;;;;;;;4895551;29;20046;-76
2023/03/10 08:02:40;;;;;;;2.70;2.20;;;;;;;;;;4885163;29;20608;-76
2023/03/10 08:05:07;;;;;;;2.70;2.30;;;;;;;;;;4892781;29;20039;-75
2023/03/10 08:07:33;;;;;;;3.22;2.45;;;;;;;;;;4893764;29;20033;-75
2023/03/10 08:09:59;;;;;;;2.80;2.38;;;;;;;;;;4894442;29;20048;-76
2023/03/10 08:12:25;;;;;;;3.70;2.22;;;;;;;;;;4898913;29;20059;-76
2023/03/10 08:14:51;;;;;;;3.35;2.30;;;;;;;;;;4895469;29;20025;-76
2023/03/10 08:17:22;;;;;;;3.20;2.45;;;;;;;;;;4899732;29;20028;-76
2023/03/10 08:19:48;;;;;;;2.72;2.35;;;;;;;;;;4891026;29;20094;-76
2023/03/10 08:22:15;;;;;;;4.13;2.72;;;;;;;;;;4889284;29;20036;-76
2023/03/10 08:24:41;;;;;;;5.15;2.95;;;;;;;;;;4886487;29;20444;-77
2023/03/10 08:27:07;;;;;;;5.93;3.28;;;;;;;;;;4881861;29;20423;-75
2023/03/10 08:29:34;;;;;;;5.45;3.35;;;;;;;;;;4889983;29;20032;-76
2023/03/10 08:32:00;;;;;;;6.47;3.53;;;;;;;;;;4890919;29;20041;-76
2023/03/10 08:34:26;;;;;;;12.20;4.25;;;;;;;;;;4890908;29;20454;-77
2023/03/10 08:36:53;;;;;;;8.77;4.05;;;;;;;;;;4894770;29;20050;-77
2023/03/10 08:39:19;;;;;;;8.00;3.75;;;;;;;;;;4897375;29;20037;-77
2023/03/10 08:41:48;;;;;;;7.82;3.58;;;;;;;;;;4888078;29;20024;-77
2023/03/10 08:44:16;;;;;;;3.63;2.90;;;;;;;;;;4890411;29;20033;-76
2023/03/10 08:46:43;;;;;;;5.90;3.10;;;;;;;;;;4891146;29;20028;-78
2023/03/10 08:49:10;;;;;;;5.25;3.42;;;;;;;;;;4893854;29;20059;-77
2023/03/10 08:51:36;;;;;;;2.92;2.60;;;;;;;;;;4891698;29;20167;-77
2023/03/10 08:54:03;;;;;;;3.53;3.13;;;;;;;;;;4874797;29;20043;-76
2023/03/10 08:56:29;;;;;;;3.92;2.80;;;;;;;;;;4880201;29;20036;-77
2023/03/10 08:58:58;;;;;;;4.55;3.08;;;;;;;;;;4892662;29;20024;-77
2023/03/10 09:01:24;;;;;;;3.22;2.50;;;;;;;;;;4892806;29;20177;-78
2023/03/10 09:03:50;;;;;;;3.47;2.58;;;;;;;;;;4886445;29;20035;-77
2023/03/10 09:06:16;;;;;;;3.97;2.40;;;;;;;;;;4903289;29;20025;-78
2023/03/10 09:08:43;;;;;;;3.10;2.40;;;;;;;;;;4883325;29;20104;-78
2023/03/10 09:11:13;;;;;;;2.45;2.10;;;;;;;;;;4892041;29;20044;-77
2023/03/10 09:13:39;;;;;;;3.50;2.88;;;;;;;;;;4892699;29;20036;-77
2023/03/10 09:16:08;;;;;;;3.25;2.30;;;;;;;;;;4892742;29;20068;-77
2023/03/10 09:18:34;;;;;;;4.13;2.40;;;;;;;;;;4895530;29;20037;-78
2023/03/10 09:21:00;;;;;;;2.60;2.40;;;;;;;;;;4898385;29;20085;-78
2023/03/10 09:23:27;;;;;;;4.63;2.50;;;;;;;;;;4893372;29;20024;-79
2023/03/10 09:25:53;;;;;;;3.78;3.03;;;;;;;;;;4897217;29;20086;-79
2023/03/10 09:28:19;;;;;;;3.97;2.80;;;;;;;;;;4900888;29;20163;-80
2023/03/10 09:30:46;;;;;;;4.72;2.85;;;;;;;;;;4906505;29;20052;-78
2023/03/10 09:33:17;;;;;;;3.15;2.40;;;;;;;;;;4902155;29;20036;-78
2023/03/10 09:35:44;;;;;;;4.90;2.80;;;;;;;;;;4896442;29;20032;-78
2023/03/10 09:38:11;;;;;;;3.28;2.30;;;;;;;;;;4878651;29;20033;-78
2023/03/10 09:40:39;;;;;;;2.90;2.58;;;;;;;;;;4884970;29;20035;-78
2023/03/10 09:43:14;;;;;;;2.80;2.50;;;;;;;;;;4896486;29;20510;-80
2023/03/10 09:45:43;;;;;;;4.00;2.63;;;;;;;;;;4892368;29;20059;-77
2023/03/10 09:48:12;;;;;;;4.22;2.78;;;;;;;;;;4894184;29;20464;-76
2023/03/10 09:50:41;;;;;;;2.58;2.38;;;;;;;;;;4889979;29;20065;-77
2023/03/10 09:53:26;;;;;;;3.97;2.60;;;;;;;;;;4889966;29;20059;-77
2023/03/10 09:55:52;;;;;;;4.05;2.70;;;;;;;;;;4891361;29;20028;-78
2023/03/10 09:58:30;;;;;;;4.03;2.38;;;;;;;;;;4878514;29;20071;-78
2023/03/10 10:00:57;;;;;;;5.05;2.92;;;;;;;;;;4889532;29;20036;-77
2023/03/10 10:03:44;;;;;;;3.53;2.65;;;;;;;;;;4886889;29;20039;-76
2023/03/10 10:06:16;;;;;;;3.15;2.50;;;;;;;;;;4891071;29;20530;-75
2023/03/10 10:08:45;;;;;;;2.83;2.45;;;;;;;;;;4891666;29;20143;-77
2023/03/10 10:11:14;;;;;;;4.03;2.72;;;;;;;;;;4892010;29;20064;-77
2023/03/10 10:13:40;;;;;;;5.50;2.67;;;;;;;;;;4893020;29;20075;-78
2023/03/10 10:16:16;;;;;;;7.57;2.80;;;;;;;;;;4889295;29;20427;-77
2023/03/10 10:18:45;;;;;;;4.55;2.28;;;;;;;;;;4890347;29;20043;-77
2023/03/10 10:21:17;;;;;;;3.42;2.28;;;;;;;;;;4885901;29;20509;-76
2023/03/10 10:23:48;;;;;;;3.63;3.05;;;;;;;;;;4894498;29;20032;-78
2023/03/10 10:26:25;;;;;;;6.95;4.35;;;;;;;;;;4889948;29;20029;-77
2023/03/10 10:28:54;;;;;;;6.90;3.50;;;;;;;;;;4908275;29;20073;-77
2023/03/10 10:31:21;;;;;;;5.03;3.03;;;;;;;;;;4913720;29;20052;-78
2023/03/10 10:33:58;;;;;;;5.03;2.88;;;;;;;;;;4899281;29;21264;-78
2023/03/10 10:36:26;;;;;;;6.55;5.25;;;;;;;;;;4892800;29;20040;-78
2023/03/10 10:38:53;;;;;;;4.90;3.90;;;;;;;;;;4891073;29;20402;-76
2023/03/10 10:41:21;;;;;;;4.53;3.17;;;;;;;;;;4889656;29;20621;-76
2023/03/10 10:43:47;;;;;;;4.28;3.47;;;;;;;;;;4897186;29;20392;-78
2023/03/10 10:46:15;;;;;;;5.57;2.80;;;;;;;;;;4893087;29;20021;-78
2023/03/10 10:48:44;;;;;;;3.75;2.70;;;;;;;;;;4897530;29;20095;-78
2023/03/10 10:51:19;;;;;;;3.50;3.08;;;;;;;;;;4876642;29;20045;-77
2023/03/10 10:53:45;;;;;;;5.47;3.40;;;;;;;;;;4892936;29;20067;-77
2023/03/10 10:56:11;;;;;;;8.80;2.95;;;;;;;;;;4886860;29;20373;-77
2023/03/10 10:58:38;;;;;;;4.90;2.80;;;;;;;;;;4892709;29;20033;-78
2023/03/10 11:01:05;;;;;;;3.10;2.25;;;;;;;;;;4891728;29;20044;-77
2023/03/10 11:03:36;;;;;;;3.63;2.42;;;;;;;;;;4893201;29;20033;-77
2023/03/10 11:06:14;;;;;;;4.57;2.85;;;;;;;;;;4879737;29;20452;-77
2023/03/10 11:08:44;;;;;;;2.92;2.47;;;;;;;;;;4907557;29;20365;-76
2023/03/10 11:11:13;;;;;;;5.75;2.50;;;;;;;;;;4903911;29;20059;-78
2023/03/10 11:13:51;;;;;;;4.07;2.30;;;;;;;;;;4907067;29;20025;-77
2023/03/10 11:16:22;;;;;;;3.33;2.50;;;;;;;;;;4910118;29;20016;-79
2023/03/10 11:18:52;;;;;;;2.50;2.05;;;;;;;;;;4891749;29;20060;-77
2023/03/10 11:21:22;;;;;;;3.13;2.83;;;;;;;;;;4902204;29;20051;-77
2023/03/10 11:23:54;;;;;;;2.95;2.30;;;;;;;;;;4891458;29;20025;-78
2023/03/10 11:26:36;;;;;;;5.22;2.50;;;;;;;;;;4908711;29;20567;-78
2023/03/10 11:29:08;;;;;;;3.53;2.42;;;;;;;;;;4905489;29;20024;-77
2023/03/10 11:31:37;;;;;;;3.35;2.05;;;;;;;;;;4895740;29;20044;-78
2023/03/10 11:34:15;;;;;;;4.28;2.70;;;;;;;;;;4895529;29;20060;-78
2023/03/10 11:36:51;;;;;;;4.03;2.60;;;;;;;;;;4906530;29;20056;-78
2023/03/10 11:39:28;;;;;;;2.60;2.10;;;;;;;;;;4903247;29;20088;-76
2023/03/10 11:42:12;;;;;;;3.60;2.30;;;;;;;;;;4901061;29;20035;-78
2023/03/10 11:44:45;;;;;;;3.65;2.30;;;;;;;;;;4899268;29;20059;-79
2023/03/10 11:47:18;;;;;;;2.97;2.15;;;;;;;;;;4892710;29;20048;-77
2023/03/10 11:49:46;;;;;;;3.78;2.17;;;;;;;;;;4897584;29;20029;-77
2023/03/10 11:52:17;;;;;;;6.72;3.28;;;;;;;;;;4890217;29;20108;-76
2023/03/10 11:55:10;;;;;;;4.03;2.00;;;;;;;;;;4884638;29;20032;-76
2023/03/10 11:57:41;;;;;;;2.50;2.30;;;;;;;;;;4862291;29;20126;-75
2023/03/10 12:00:14;;;;;;;3.50;2.72;;;;;;;;;;4894413;29;20041;-76
2023/03/10 12:02:46;;;;;;;3.28;2.28;;;;;;;;;;4890882;29;20033;-76
2023/03/10 12:05:15;;;;;;;4.45;2.30;;;;;;;;;;4893768;29;20040;-76
2023/03/10 12:07:44;;;;;;;2.20;2.00;;;;;;;;;;4895243;29;20033;-77
2023/03/10 12:10:13;;;;;;;4.10;2.40;;;;;;;;;;4894168;29;20035;-76
2023/03/10 12:12:40;;;;;;;4.05;2.45;;;;;;;;;;4895476;29;20513;-75
2023/03/10 12:15:29;;;;;;;2.92;2.38;;;;;;;;;;4893155;29;20048;-75
2023/03/10 12:17:55;;;;;;;5.85;2.40;;;;;;;;;;4879704;29;20032;-75
2023/03/10 12:20:21;;;;;;;3.33;2.50;;;;;;;;;;4892306;29;20046;-75
2023/03/10 12:22:51;;;;;;;4.07;2.33;;;;;;;;;;4893148;29;20024;-76
2023/03/10 12:25:31;;;;;;;3.72;2.40;;;;;;;;;;4889812;29;20033;-76
2023/03/10 12:28:16;;;;;;;6.22;2.45;;;;;;;;;;4887515;29;20025;-77
2023/03/10 12:31:02;;;;;;;5.05;2.55;;;;;;;;;;4895447;29;20084;-76
2023/03/10 12:33:37;;;;;;;6.47;2.45;;;;;;;;;;4890793;29;20121;-77
2023/03/10 12:36:22;;;;;;;2.63;2.40;;;;;;;;;;4891955;29;20175;-76
2023/03/10 12:38:51;;;;;;;3.28;2.67;;;;;;;;;;4900100;29;20032;-78
2023/03/10 12:41:26;;;;;;;6.88;3.00;;;;;;;;;;4904613;29;20107;-76
2023/03/10 12:43:57;;;;;;;3.58;2.47;;;;;;;;;;4904838;29;20032;-77
2023/03/10 12:46:23;;;;;;;4.22;2.45;;;;;;;;;;4906831;29;20080;-78
2023/03/10 12:48:53;;;;;;;2.30;2.00;;;;;;;;;;4877318;29;20038;-77
2023/03/10 12:51:22;;;;;;;2.70;2.28;;;;;;;;;;4899480;29;20036;-78
2023/03/10 12:53:51;;;;;;;2.63;2.42;;;;;;;;;;4901852;29;20036;-78
2023/03/10 12:56:21;;;;;;;3.85;2.00;;;;;;;;;;4900839;29;20458;-77
2023/03/10 12:59:10;;;;;;;3.67;2.45;;;;;;;;;;4902547;29;20039;-78
2023/03/10 13:01:41;;;;;;;4.35;2.58;;;;;;;;;;4888456;29;20044;-78
2023/03/10 13:04:08;;;;;;;3.80;2.10;;;;;;;;;;4896997;29;20244;-78
2023/03/10 13:06:38;;;;;;;3.80;2.10;;;;;;;;;;4883008;29;20399;-77
2023/03/10 13:09:13;;;;;;;5.05;2.20;;;;;;;;;;4896686;29;20033;-78
2023/03/10 13:11:39;;;;;;;;;;;;;;;;;;4898080;29;20085;-78
2023/03/10 13:14:19;;;;;;;3.15;1.90;;;;;;;;;;4896119;29;20006;-77
2023/03/10 13:16:56;;;;;;;2.70;2.08;;;;;;;;;;4895988;29;20060;-77
2023/03/10 13:19:24;;;;;;;3.65;2.10;;;;;;;;;;4897727;29;20024;-77
2023/03/10 13:21:51;;;;;;;2.65;1.95;;;;;;;;;;4899017;29;20084;-78
2023/03/10 13:24:34;;;;;;;7.78;2.58;;;;;;;;;;4899649;29;20028;-78
2023/03/10 13:27:03;;;;;;;2.83;2.17;;;;;;;;;;4887102;29;20411;-77
2023/03/10 13:29:30;;;;;;;4.88;2.10;;;;;;;;;;4897953;29;20028;-78
2023/03/10 13:31:56;;;;;;;8.05;2.65;;;;;;;;;;4899755;29;20067;-78
2023/03/10 13:34:26;;;;;;;5.28;2.80;;;;;;;;;;4898890;29;20068;-78
2023/03/10 13:36:52;;;;;;;6.50;5.22;;;;;;;;;;4885787;29;20048;-79
2023/03/10 13:39:21;;;;;;;3.58;2.13;;;;;;;;;;4894065;29;20047;-78
2023/03/10 13:41:58;;;;;;;3.10;2.00;;;;;;;;;;4884677;29;20037;-79
2023/03/10 13:44:28;;;;;;;2.45;1.80;;;;;;;;;;4904105;29;20040;-78
2023/03/10 13:46:57;;;;;;;2.03;1.70;;;;;;;;;;4894152;29;20085;-76
2023/03/10 13:49:25;;;;;;;3.10;1.90;;;;;;;;;;4904363;29;20111;-77
2023/03/10 13:51:52;;;;;;;3.05;2.17;;;;;;;;;;4911374;29;20032;-77
2023/03/10 13:54:26;;;;;;;3.05;2.08;;;;;;;;;;4909674;29;20056;-75
2023/03/10 13:56:54;;;;;;;4.72;2.30;;;;;;;;;;4905545;29;20340;-81
2023/03/10 13:59:22;;;;;;;3.28;2.42;;;;;;;;;;4894648;29;20075;-82
2023/03/10 14:01:49;;;;;;;5.93;2.58;;;;;;;;;;4891771;29;20516;-81
2023/03/10 14:04:17;;;;;;;4.65;2.10;;;;;;;;;;4890350;29;20029;-82
2023/03/10 14:06:44;;;;;;;1.90;1.70;;;;;;;;;;4889180;29;20360;-83
2023/03/10 14:09:13;;;;;;;4.10;1.90;;;;;;;;;;4888221;29;20028;-82
2023/03/10 14:11:41;;;;;;;4.95;2.83;;;;;;;;;;4880063;29;20082;-81
2023/03/10 14:14:08;;;;;;;5.65;2.20;;;;;;;;;;4891443;29;20040;-81
2023/03/10 14:16:48;;;;;;;3.88;2.03;;;;;;;;;;4892431;29;20032;-80
2023/03/10 14:19:34;;;;;;;3.08;2.05;;;;;;;;;;4894313;29;20077;-81
2023/03/10 14:22:00;;;;;;;4.45;2.15;;;;;;;;;;4892616;29;20040;-81
2023/03/10 14:24:26;;;;;;;4.32;2.53;;;;;;;;;;4889473;29;20083;-78
2023/03/10 14:26:53;;;;;;;3.25;2.58;;;;;;;;;;4890815;29;20032;-80
2023/03/10 14:29:19;;;;;;;5.63;2.13;;;;;;;;;;4893804;29;20032;-80
2023/03/10 14:31:51;;;;;;;4.25;2.00;;;;;;;;;;4888414;29;20168;-82
2023/03/10 14:34:17;;;;;;;2.65;2.00;;;;;;;;;;4890355;29;20136;-83
2023/03/10 14:36:43;;;;;;;3.20;1.80;;;;;;;;;;4890411;29;20035;-80
2023/03/10 14:39:09;;;;;;;2.83;1.60;;;;;;;;;;4898752;29;20040;-80
2023/03/10 14:41:35;;;;;;;3.08;1.58;;;;;;;;;;4913919;29;20040;-84
2023/03/10 14:44:02;;;;;;;3.33;2.35;;;;;;;;;;4912761;29;20024;-83
2023/03/10 14:46:28;;;;;;;4.03;1.80;;;;;;;;;;4907276;29;20048;-78
2023/03/10 14:48:55;;;;;;;4.25;1.90;;;;;;;;;;4890100;29;20037;-81
2023/03/10 14:51:21;;;;;;;4.15;2.70;;;;;;;;;;4896621;29;20061;-83